sensor_id;sensor_type;location;lat;lon;timestamp;temperature;humidity
1614;DHT22;800;48.824;9.346;2023-06-26T00:01:50;27.70;36.40
1614;DHT22;800;48.824;9.346;2023-06-26T00:04:16;27.80;36.80
1614;DHT22;800;48.824;9.346;2023-06-26T00:06:42;27.80;37.00
1614;DHT22;800;48.824;9.346;2023-06-26T00:09:07;28.00;36.90
1614;DHT22;800;48.824;9.346;2023-06-26T00:11:33;28.10;36.30
1614;DHT22;800;48.824;9.346;2023-06-26T00:14:00;28.10;36.40
1614;DHT22;800;48.824;9.346;2023-06-26T00:16:27;28.10;36.40
1614;DHT22;800;48.824;9.346;2023-06-26T00:18:53;28.20;36.50
1614;DHT22;800;48.824;9.346;2023-06-26T00:21:19;28.00;36.40
1614;DHT22;800;48.824;9.346;2023-06-26T00:23:45;28.00;36.20
1614;DHT22;800;48.824;9.346;2023-06-26T00:26:11;28.10;36.00
1614;DHT22;800;48.824;9.346;2023-06-26T00:28:37;28.20;36.10
1614;DHT22;800;48.824;9.346;2023-06-26T00:31:03;28.20;36.00
1614;DHT22;800;48.824;9.346;2023-06-26T00:33:29;28.20;36.30
1614;DHT22;800;48.824;9.346;2023-06-26T00:35:54;28.20;36.30
1614;DHT22;800;48.824;9.346;2023-06-26T00:38:20;28.20;36.00
1614;DHT22;800;48.824;9.346;2023-06-26T00:40:46;28.30;36.60
1614;DHT22;800;48.824;9.346;2023-06-26T00:43:12;28.20;36.40
1614;DHT22;800;48.824;9.346;2023-06-26T00:45:38;28.10;36.10
1614;DHT22;800;48.824;9.346;2023-06-26T00:48:04;28.00;36.80
1614;DHT22;800;48.824;9.346;2023-06-26T00:50:29;28.00;36.70
1614;DHT22;800;48.824;9.346;2023-06-26T00:52:55;28.10;36.70
1614;DHT22;800;48.824;9.346;2023-06-26T00:55:28;28.10;36.40
1614;DHT22;800;48.824;9.346;2023-06-26T00:57:55;28.10;36.30
1614;DHT22;800;48.824;9.346;2023-06-26T01:00:21;28.10;36.20
1614;DHT22;800;48.824;9.346;2023-06-26T01:02:46;28.10;36.40
1614;DHT22;800;48.824;9.346;2023-06-26T01:05:13;28.20;36.60
1614;DHT22;800;48.824;9.346;2023-06-26T01:07:47;28.10;36.20
1614;DHT22;800;48.824;9.346;2023-06-26T01:10:13;28.10;36.30
1614;DHT22;800;48.824;9.346;2023-06-26T01:12:39;28.10;36.40
1614;DHT22;800;48.824;9.346;2023-06-26T01:15:05;27.70;36.80
1614;DHT22;800;48.824;9.346;2023-06-26T01:17:31;27.70;37.50
1614;DHT22;800;48.824;9.346;2023-06-26T01:19:58;27.60;37.80
1614;DHT22;800;48.824;9.346;2023-06-26T01:25:12;27.60;37.10
1614;DHT22;800;48.824;9.346;2023-06-26T01:27:48;27.50;37.80
1614;DHT22;800;48.824;9.346;2023-06-26T01:30:16;27.50;37.50
1614;DHT22;800;48.824;9.346;2023-06-26T01:32:43;27.50;37.90
1614;DHT22;800;48.824;9.346;2023-06-26T01:35:09;27.30;37.60
1614;DHT22;800;48.824;9.346;2023-06-26T01:37:36;26.80;38.60
1614;DHT22;800;48.824;9.346;2023-06-26T01:40:01;26.70;39.30
1614;DHT22;800;48.824;9.346;2023-06-26T01:42:31;26.40;39.80
1614;DHT22;800;48.824;9.346;2023-06-26T01:44:57;26.30;39.70
1614;DHT22;800;48.824;9.346;2023-06-26T01:47:24;26.10;40.80
1614;DHT22;800;48.824;9.346;2023-06-26T01:50:08;26.40;40.00
1614;DHT22;800;48.824;9.346;2023-06-26T01:52:41;26.40;39.80
1614;DHT22;800;48.824;9.346;2023-06-26T01:55:21;26.40;40.00
1614;DHT22;800;48.824;9.346;2023-06-26T01:57:52;26.50;39.80
1614;DHT22;800;48.824;9.346;2023-06-26T02:00:20;26.40;39.90
1614;DHT22;800;48.824;9.346;2023-06-26T02:02:46;26.40;40.30
1614;DHT22;800;48.824;9.346;2023-06-26T02:05:13;26.40;40.40
1614;DHT22;800;48.824;9.346;2023-06-26T02:07:39;26.60;40.00
1614;DHT22;800;48.824;9.346;2023-06-26T02:10:05;26.70;39.70
1614;DHT22;800;48.824;9.346;2023-06-26T02:12:30;26.80;39.50
1614;DHT22;800;48.824;9.346;2023-06-26T02:14:56;26.90;39.60
1614;DHT22;800;48.824;9.346;2023-06-26T02:17:21;27.00;39.30
1614;DHT22;800;48.824;9.346;2023-06-26T02:19:47;27.10;39.10
1614;DHT22;800;48.824;9.346;2023-06-26T02:22:14;27.10;38.60
1614;DHT22;800;48.824;9.346;2023-06-26T02:24:40;26.90;39.30
1614;DHT22;800;48.824;9.346;2023-06-26T02:27:06;26.90;39.60
1614;DHT22;800;48.824;9.346;2023-06-26T02:29:32;26.90;39.30
1614;DHT22;800;48.824;9.346;2023-06-26T02:31:57;26.90;39.30
1614;DHT22;800;48.824;9.346;2023-06-26T02:34:23;26.90;39.50
1614;DHT22;800;48.824;9.346;2023-06-26T02:36:48;27.00;39.10
1614;DHT22;800;48.824;9.346;2023-06-26T02:39:14;27.10;38.70
1614;DHT22;800;48.824;9.346;2023-06-26T02:41:40;27.10;38.90
1614;DHT22;800;48.824;9.346;2023-06-26T02:44:05;27.20;38.40
1614;DHT22;800;48.824;9.346;2023-06-26T02:46:32;27.20;38.60
1614;DHT22;800;48.824;9.346;2023-06-26T02:48:58;27.20;38.60
1614;DHT22;800;48.824;9.346;2023-06-26T02:51:24;27.10;38.70
1614;DHT22;800;48.824;9.346;2023-06-26T02:53:50;26.80;38.90
1614;DHT22;800;48.824;9.346;2023-06-26T02:56:15;26.60;39.60
1614;DHT22;800;48.824;9.346;2023-06-26T02:58:41;26.60;39.30
1614;DHT22;800;48.824;9.346;2023-06-26T03:01:07;26.50;39.90
1614;DHT22;800;48.824;9.346;2023-06-26T03:03:32;26.40;40.20
1614;DHT22;800;48.824;9.346;2023-06-26T03:06:06;26.60;39.90
1614;DHT22;800;48.824;9.346;2023-06-26T03:08:33;26.70;39.70
1614;DHT22;800;48.824;9.346;2023-06-26T03:10:58;26.80;39.40
1614;DHT22;800;48.824;9.346;2023-06-26T03:13:24;26.80;39.50
1614;DHT22;800;48.824;9.346;2023-06-26T03:15:49;26.90;39.10
1614;DHT22;800;48.824;9.346;2023-06-26T03:18:15;26.90;39.20
1614;DHT22;800;48.824;9.346;2023-06-26T03:20:40;26.90;39.00
1614;DHT22;800;48.824;9.346;2023-06-26T03:23:06;26.90;39.10
1614;DHT22;800;48.824;9.346;2023-06-26T03:25:32;26.90;39.30
1614;DHT22;800;48.824;9.346;2023-06-26T03:27:57;26.90;38.90
1614;DHT22;800;48.824;9.346;2023-06-26T03:30:23;26.70;39.40
1614;DHT22;800;48.824;9.346;2023-06-26T03:32:48;26.70;39.90
1614;DHT22;800;48.824;9.346;2023-06-26T03:35:14;26.80;39.60
1614;DHT22;800;48.824;9.346;2023-06-26T03:37:40;26.80;39.50
1614;DHT22;800;48.824;9.346;2023-06-26T03:40:06;26.70;39.30
1614;DHT22;800;48.824;9.346;2023-06-26T03:42:32;26.40;39.80
1614;DHT22;800;48.824;9.346;2023-06-26T03:44:57;26.10;40.40
1614;DHT22;800;48.824;9.346;2023-06-26T03:47:23;26.10;40.70
1614;DHT22;800;48.824;9.346;2023-06-26T03:49:48;26.00;41.40
1614;DHT22;800;48.824;9.346;2023-06-26T03:52:14;26.00;40.90
1614;DHT22;800;48.824;9.346;2023-06-26T03:54:40;26.10;40.90
1614;DHT22;800;48.824;9.346;2023-06-26T03:57:05;26.20;40.90
1614;DHT22;800;48.824;9.346;2023-06-26T03:59:31;26.30;40.30
1614;DHT22;800;48.824;9.346;2023-06-26T04:01:56;26.10;40.80
1614;DHT22;800;48.824;9.346;2023-06-26T04:04:22;26.20;40.40
1614;DHT22;800;48.824;9.346;2023-06-26T04:06:47;26.30;40.60
1614;DHT22;800;48.824;9.346;2023-06-26T04:09:13;26.30;40.10
1614;DHT22;800;48.824;9.346;2023-06-26T04:11:38;26.20;40.20
1614;DHT22;800;48.824;9.346;2023-06-26T04:14:04;26.20;40.40
1614;DHT22;800;48.824;9.346;2023-06-26T04:16:30;26.10;40.50
1614;DHT22;800;48.824;9.346;2023-06-26T04:18:55;26.00;40.90
1614;DHT22;800;48.824;9.346;2023-06-26T04:21:22;26.00;40.90
1614;DHT22;800;48.824;9.346;2023-06-26T04:23:50;25.90;41.20
1614;DHT22;800;48.824;9.346;2023-06-26T04:26:16;25.90;41.20
1614;DHT22;800;48.824;9.346;2023-06-26T04:28:42;25.90;41.30
1614;DHT22;800;48.824;9.346;2023-06-26T04:31:08;25.90;41.30
1614;DHT22;800;48.824;9.346;2023-06-26T04:33:34;25.90;41.60
1614;DHT22;800;48.824;9.346;2023-06-26T04:36:04;25.90;41.50
1614;DHT22;800;48.824;9.346;2023-06-26T04:38:34;25.90;42.30
1614;DHT22;800;48.824;9.346;2023-06-26T04:41:02;25.80;41.70
1614;DHT22;800;48.824;9.346;2023-06-26T04:43:28;25.90;41.80
1614;DHT22;800;48.824;9.346;2023-06-26T04:45:54;25.90;41.80
1614;DHT22;800;48.824;9.346;2023-06-26T04:48:19;25.90;42.00
1614;DHT22;800;48.824;9.346;2023-06-26T04:50:45;25.90;42.20
1614;DHT22;800;48.824;9.346;2023-06-26T04:53:21;25.90;42.20
1614;DHT22;800;48.824;9.346;2023-06-26T04:55:51;25.90;42.20
1614;DHT22;800;48.824;9.346;2023-06-26T04:58:18;25.90;42.20
1614;DHT22;800;48.824;9.346;2023-06-26T05:00:43;26.00;42.20
1614;DHT22;800;48.824;9.346;2023-06-26T05:03:11;25.80;42.30
1614;DHT22;800;48.824;9.346;2023-06-26T05:05:37;25.90;42.50
1614;DHT22;800;48.824;9.346;2023-06-26T05:10:43;26.20;42.30
1614;DHT22;800;48.824;9.346;2023-06-26T05:13:10;26.30;41.80
1614;DHT22;800;48.824;9.346;2023-06-26T05:15:36;26.40;41.60
1614;DHT22;800;48.824;9.346;2023-06-26T05:18:01;26.50;41.30
1614;DHT22;800;48.824;9.346;2023-06-26T05:20:27;26.60;41.10
1614;DHT22;800;48.824;9.346;2023-06-26T05:22:52;26.80;41.00
1614;DHT22;800;48.824;9.346;2023-06-26T05:25:18;26.60;41.30
1614;DHT22;800;48.824;9.346;2023-06-26T05:27:47;26.20;42.40
1614;DHT22;800;48.824;9.346;2023-06-26T05:30:13;26.00;42.90
1614;DHT22;800;48.824;9.346;2023-06-26T05:32:40;26.00;43.20
1614;DHT22;800;48.824;9.346;2023-06-26T05:35:06;26.00;43.20
1614;DHT22;800;48.824;9.346;2023-06-26T05:37:34;25.80;43.60
1614;DHT22;800;48.824;9.346;2023-06-26T05:40:00;25.90;43.80
1614;DHT22;800;48.824;9.346;2023-06-26T05:42:29;25.60;44.20
1614;DHT22;800;48.824;9.346;2023-06-26T05:44:55;25.70;44.50
1614;DHT22;800;48.824;9.346;2023-06-26T05:47:21;25.80;44.80
1614;DHT22;800;48.824;9.346;2023-06-26T05:49:46;25.70;45.20
1614;DHT22;800;48.824;9.346;2023-06-26T05:52:12;25.80;44.40
1614;DHT22;800;48.824;9.346;2023-06-26T05:54:38;25.90;44.40
1614;DHT22;800;48.824;9.346;2023-06-26T05:57:04;26.10;44.30
1614;DHT22;800;48.824;9.346;2023-06-26T05:59:33;26.10;44.50
1614;DHT22;800;48.824;9.346;2023-06-26T06:01:59;25.90;45.30
1614;DHT22;800;48.824;9.346;2023-06-26T06:04:25;26.00;45.10
1614;DHT22;800;48.824;9.346;2023-06-26T06:06:51;26.10;45.00
1614;DHT22;800;48.824;9.346;2023-06-26T06:09:17;26.10;45.20
1614;DHT22;800;48.824;9.346;2023-06-26T06:11:42;26.10;45.30
1614;DHT22;800;48.824;9.346;2023-06-26T06:14:08;26.40;45.10
1614;DHT22;800;48.824;9.346;2023-06-26T06:16:33;26.60;44.20
1614;DHT22;800;48.824;9.346;2023-06-26T06:18:59;26.80;43.80
1614;DHT22;800;48.824;9.346;2023-06-26T06:21:24;27.10;43.30
1614;DHT22;800;48.824;9.346;2023-06-26T06:23:50;27.00;43.00
1614;DHT22;800;48.824;9.346;2023-06-26T06:26:15;26.90;43.40
1614;DHT22;800;48.824;9.346;2023-06-26T06:28:41;27.20;43.30
1614;DHT22;800;48.824;9.346;2023-06-26T06:31:07;27.40;43.00
1614;DHT22;800;48.824;9.346;2023-06-26T06:33:32;27.60;42.50
1614;DHT22;800;48.824;9.346;2023-06-26T06:35:58;27.90;42.00
1614;DHT22;800;48.824;9.346;2023-06-26T06:38:23;28.10;41.70
1614;DHT22;800;48.824;9.346;2023-06-26T06:40:49;28.00;41.70
1614;DHT22;800;48.824;9.346;2023-06-26T06:43:14;28.00;41.50
1614;DHT22;800;48.824;9.346;2023-06-26T06:45:40;28.10;41.30
1614;DHT22;800;48.824;9.346;2023-06-26T06:48:06;28.10;41.20
1614;DHT22;800;48.824;9.346;2023-06-26T06:50:32;28.30;41.10
1614;DHT22;800;48.824;9.346;2023-06-26T06:52:57;28.70;40.30
1614;DHT22;800;48.824;9.346;2023-06-26T06:55:23;28.80;40.30
1614;DHT22;800;48.824;9.346;2023-06-26T06:57:49;29.00;40.00
1614;DHT22;800;48.824;9.346;2023-06-26T07:00:15;29.00;39.70
1614;DHT22;800;48.824;9.346;2023-06-26T07:02:45;29.20;39.70
1614;DHT22;800;48.824;9.346;2023-06-26T07:05:11;29.30;39.60
1614;DHT22;800;48.824;9.346;2023-06-26T07:07:37;29.70;39.10
1614;DHT22;800;48.824;9.346;2023-06-26T07:10:12;30.10;38.60
1614;DHT22;800;48.824;9.346;2023-06-26T07:12:38;30.50;38.20
1614;DHT22;800;48.824;9.346;2023-06-26T07:15:05;30.70;37.70
1614;DHT22;800;48.824;9.346;2023-06-26T07:17:32;31.00;37.60
1614;DHT22;800;48.824;9.346;2023-06-26T07:19:57;31.20;36.60
1614;DHT22;800;48.824;9.346;2023-06-26T07:22:23;31.30;36.00
1614;DHT22;800;48.824;9.346;2023-06-26T07:24:49;31.30;36.00
1614;DHT22;800;48.824;9.346;2023-06-26T07:27:17;31.60;35.60
1614;DHT22;800;48.824;9.346;2023-06-26T07:29:44;31.80;35.90
1614;DHT22;800;48.824;9.346;2023-06-26T07:32:10;31.90;34.90
1614;DHT22;800;48.824;9.346;2023-06-26T07:34:36;32.10;35.00
1614;DHT22;800;48.824;9.346;2023-06-26T07:37:01;32.20;35.40
1614;DHT22;800;48.824;9.346;2023-06-26T07:39:27;32.40;34.90
1614;DHT22;800;48.824;9.346;2023-06-26T07:41:53;32.60;34.10
1614;DHT22;800;48.824;9.346;2023-06-26T07:44:18;32.70;33.50
1614;DHT22;800;48.824;9.346;2023-06-26T07:46:44;32.60;33.60
1614;DHT22;800;48.824;9.346;2023-06-26T07:49:12;32.50;34.20
1614;DHT22;800;48.824;9.346;2023-06-26T07:51:38;32.60;34.40
1614;DHT22;800;48.824;9.346;2023-06-26T07:54:04;32.80;34.10
1614;DHT22;800;48.824;9.346;2023-06-26T07:56:29;33.00;34.90
1614;DHT22;800;48.824;9.346;2023-06-26T07:58:55;33.30;34.40
1614;DHT22;800;48.824;9.346;2023-06-26T08:01:23;33.40;33.20
1614;DHT22;800;48.824;9.346;2023-06-26T08:03:49;33.70;33.20
1614;DHT22;800;48.824;9.346;2023-06-26T08:06:14;33.90;32.40
1614;DHT22;800;48.824;9.346;2023-06-26T08:08:40;34.10;32.40
1614;DHT22;800;48.824;9.346;2023-06-26T08:11:06;34.20;31.70
1614;DHT22;800;48.824;9.346;2023-06-26T08:13:31;34.40;32.00
1614;DHT22;800;48.824;9.346;2023-06-26T08:15:57;34.50;31.40
1614;DHT22;800;48.824;9.346;2023-06-26T08:18:22;34.60;30.70
1614;DHT22;800;48.824;9.346;2023-06-26T08:20:48;34.60;31.10
1614;DHT22;800;48.824;9.346;2023-06-26T08:23:13;34.60;30.30
1614;DHT22;800;48.824;9.346;2023-06-26T08:25:39;34.70;30.50
1614;DHT22;800;48.824;9.346;2023-06-26T08:28:05;34.80;30.20
1614;DHT22;800;48.824;9.346;2023-06-26T08:30:32;34.80;30.00
1614;DHT22;800;48.824;9.346;2023-06-26T08:33:01;34.80;30.00
1614;DHT22;800;48.824;9.346;2023-06-26T08:35:26;34.80;30.30
1614;DHT22;800;48.824;9.346;2023-06-26T08:40:47;35.00;29.70
1614;DHT22;800;48.824;9.346;2023-06-26T08:43:13;35.10;30.10
1614;DHT22;800;48.824;9.346;2023-06-26T08:45:39;35.20;30.00
1614;DHT22;800;48.824;9.346;2023-06-26T08:48:07;35.40;29.70
1614;DHT22;800;48.824;9.346;2023-06-26T08:50:34;35.60;29.30
1614;DHT22;800;48.824;9.346;2023-06-26T08:53:27;35.80;29.10
1614;DHT22;800;48.824;9.346;2023-06-26T08:55:57;35.90;29.30
1614;DHT22;800;48.824;9.346;2023-06-26T08:58:23;36.00;29.30
1614;DHT22;800;48.824;9.346;2023-06-26T09:00:48;36.10;29.10
1614;DHT22;800;48.824;9.346;2023-06-26T09:03:15;36.20;29.00
1614;DHT22;800;48.824;9.346;2023-06-26T09:05:41;36.20;28.60
1614;DHT22;800;48.824;9.346;2023-06-26T09:08:07;36.40;28.30
1614;DHT22;800;48.824;9.346;2023-06-26T09:10:33;36.20;28.30
1614;DHT22;800;48.824;9.346;2023-06-26T09:12:59;36.20;28.70
1614;DHT22;800;48.824;9.346;2023-06-26T09:15:26;36.30;28.50
1614;DHT22;800;48.824;9.346;2023-06-26T09:17:56;36.50;28.30
1614;DHT22;800;48.824;9.346;2023-06-26T09:20:22;36.60;28.50
1614;DHT22;800;48.824;9.346;2023-06-26T09:22:48;36.80;27.50
1614;DHT22;800;48.824;9.346;2023-06-26T09:25:16;36.90;27.60
1614;DHT22;800;48.824;9.346;2023-06-26T09:27:43;36.90;27.40
1614;DHT22;800;48.824;9.346;2023-06-26T09:30:09;36.90;27.70
1614;DHT22;800;48.824;9.346;2023-06-26T09:32:36;37.10;27.70
1614;DHT22;800;48.824;9.346;2023-06-26T09:35:04;37.30;27.50
1614;DHT22;800;48.824;9.346;2023-06-26T09:37:30;37.30;27.50
1614;DHT22;800;48.824;9.346;2023-06-26T09:39:56;37.50;27.30
1614;DHT22;800;48.824;9.346;2023-06-26T09:42:23;37.50;27.20
1614;DHT22;800;48.824;9.346;2023-06-26T09:44:49;37.60;27.40
1614;DHT22;800;48.824;9.346;2023-06-26T09:47:21;37.80;27.50
1614;DHT22;800;48.824;9.346;2023-06-26T09:49:47;37.80;26.90
1614;DHT22;800;48.824;9.346;2023-06-26T09:52:17;37.70;27.20
1614;DHT22;800;48.824;9.346;2023-06-26T09:54:43;37.90;27.00
1614;DHT22;800;48.824;9.346;2023-06-26T09:57:13;37.80;26.90
1614;DHT22;800;48.824;9.346;2023-06-26T09:59:41;37.90;27.00
1614;DHT22;800;48.824;9.346;2023-06-26T10:02:07;37.90;26.80
1614;DHT22;800;48.824;9.346;2023-06-26T10:04:34;37.70;26.90
1614;DHT22;800;48.824;9.346;2023-06-26T10:07:10;37.70;27.40
1614;DHT22;800;48.824;9.346;2023-06-26T10:09:39;37.70;27.00
1614;DHT22;800;48.824;9.346;2023-06-26T10:12:20;37.60;26.90
1614;DHT22;800;48.824;9.346;2023-06-26T10:14:47;37.70;27.40
1614;DHT22;800;48.824;9.346;2023-06-26T10:17:16;37.90;27.50
1614;DHT22;800;48.824;9.346;2023-06-26T10:19:45;37.80;26.60
1614;DHT22;800;48.824;9.346;2023-06-26T10:22:17;37.80;26.80
1614;DHT22;800;48.824;9.346;2023-06-26T10:24:46;37.70;27.10
1614;DHT22;800;48.824;9.346;2023-06-26T10:27:20;37.90;27.80
1614;DHT22;800;48.824;9.346;2023-06-26T10:29:53;37.90;27.70
1614;DHT22;800;48.824;9.346;2023-06-26T10:32:20;38.10;27.50
1614;DHT22;800;48.824;9.346;2023-06-26T10:34:46;38.30;27.20
1614;DHT22;800;48.824;9.346;2023-06-26T10:37:12;38.30;27.10
1614;DHT22;800;48.824;9.346;2023-06-26T10:39:50;38.30;27.50
1614;DHT22;800;48.824;9.346;2023-06-26T10:42:17;38.40;27.40
1614;DHT22;800;48.824;9.346;2023-06-26T10:44:44;37.90;28.10
1614;DHT22;800;48.824;9.346;2023-06-26T10:50:26;36.90;28.60
1614;DHT22;800;48.824;9.346;2023-06-26T10:53:16;36.50;29.10
1614;DHT22;800;48.824;9.346;2023-06-26T11:03:38;36.50;29.30
1614;DHT22;800;48.824;9.346;2023-06-26T11:06:20;36.20;29.50
1614;DHT22;800;48.824;9.346;2023-06-26T11:08:51;36.10;29.50
1614;DHT22;800;48.824;9.346;2023-06-26T11:11:19;35.90;29.70
1614;DHT22;800;48.824;9.346;2023-06-26T11:13:46;35.90;30.00
1614;DHT22;800;48.824;9.346;2023-06-26T11:16:12;35.90;29.90
1614;DHT22;800;48.824;9.346;2023-06-26T11:18:40;36.00;29.90
1614;DHT22;800;48.824;9.346;2023-06-26T11:21:10;36.30;29.50
1614;DHT22;800;48.824;9.346;2023-06-26T11:23:37;36.40;29.60
1614;DHT22;800;48.824;9.346;2023-06-26T11:26:19;36.70;29.90
1614;DHT22;800;48.824;9.346;2023-06-26T11:28:55;36.80;29.90
1614;DHT22;800;48.824;9.346;2023-06-26T11:33:50;37.00;29.60
1614;DHT22;800;48.824;9.346;2023-06-26T11:36:16;37.00;29.60
1614;DHT22;800;48.824;9.346;2023-06-26T11:38:42;37.20;29.60
1614;DHT22;800;48.824;9.346;2023-06-26T11:41:07;37.20;29.40
1614;DHT22;800;48.824;9.346;2023-06-26T11:43:34;36.70;30.00
1614;DHT22;800;48.824;9.346;2023-06-26T11:45:59;36.30;30.40
1614;DHT22;800;48.824;9.346;2023-06-26T11:48:25;36.40;30.70
1614;DHT22;800;48.824;9.346;2023-06-26T11:50:51;36.50;30.90
1614;DHT22;800;48.824;9.346;2023-06-26T11:53:17;36.70;30.90
1614;DHT22;800;48.824;9.346;2023-06-26T11:55:43;36.60;30.90
1614;DHT22;800;48.824;9.346;2023-06-26T11:58:09;36.20;31.30
1614;DHT22;800;48.824;9.346;2023-06-26T12:00:34;36.30;31.70
1614;DHT22;800;48.824;9.346;2023-06-26T12:03:01;36.40;31.70
1614;DHT22;800;48.824;9.346;2023-06-26T12:05:26;36.70;31.20
1614;DHT22;800;48.824;9.346;2023-06-26T12:07:52;36.40;31.50
1614;DHT22;800;48.824;9.346;2023-06-26T12:10:18;36.60;31.40
1614;DHT22;800;48.824;9.346;2023-06-26T12:12:45;36.70;31.40
1614;DHT22;800;48.824;9.346;2023-06-26T12:15:14;36.70;31.80
1614;DHT22;800;48.824;9.346;2023-06-26T12:17:40;36.80;31.60
1614;DHT22;800;48.824;9.346;2023-06-26T12:20:16;37.00;31.40
1614;DHT22;800;48.824;9.346;2023-06-26T12:22:43;37.00;31.30
1614;DHT22;800;48.824;9.346;2023-06-26T12:25:10;36.70;31.80
1614;DHT22;800;48.824;9.346;2023-06-26T12:27:36;36.60;32.20
1614;DHT22;800;48.824;9.346;2023-06-26T12:30:04;36.60;32.50
1614;DHT22;800;48.824;9.346;2023-06-26T12:32:30;36.70;32.10
1614;DHT22;800;48.824;9.346;2023-06-26T12:34:57;36.70;31.80
1614;DHT22;800;48.824;9.346;2023-06-26T12:37:23;36.40;32.10
1614;DHT22;800;48.824;9.346;2023-06-26T12:42:17;36.20;32.50
1614;DHT22;800;48.824;9.346;2023-06-26T12:44:43;36.30;32.70
1614;DHT22;800;48.824;9.346;2023-06-26T12:47:09;36.20;32.70
1614;DHT22;800;48.824;9.346;2023-06-26T12:49:39;36.30;32.70
1614;DHT22;800;48.824;9.346;2023-06-26T12:52:10;36.30;33.10
1614;DHT22;800;48.824;9.346;2023-06-26T12:54:38;36.40;33.10
1614;DHT22;800;48.824;9.346;2023-06-26T12:57:04;36.60;32.70
1614;DHT22;800;48.824;9.346;2023-06-26T12:59:30;36.60;32.40
1614;DHT22;800;48.824;9.346;2023-06-26T13:01:57;36.70;32.40
1614;DHT22;800;48.824;9.346;2023-06-26T13:04:23;36.70;32.10
1614;DHT22;800;48.824;9.346;2023-06-26T13:06:49;36.90;31.60
1614;DHT22;800;48.824;9.346;2023-06-26T13:09:15;36.90;31.40
1614;DHT22;800;48.824;9.346;2023-06-26T13:11:41;36.80;31.90
1614;DHT22;800;48.824;9.346;2023-06-26T13:14:07;36.70;32.00
1614;DHT22;800;48.824;9.346;2023-06-26T13:16:32;36.50;31.50
1614;DHT22;800;48.824;9.346;2023-06-26T13:18:58;36.50;32.30
1614;DHT22;800;48.824;9.346;2023-06-26T13:21:25;36.50;31.70
1614;DHT22;800;48.824;9.346;2023-06-26T13:23:50;36.40;31.70
1614;DHT22;800;48.824;9.346;2023-06-26T13:26:16;36.30;31.90
1614;DHT22;800;48.824;9.346;2023-06-26T13:28:42;36.00;31.90
1614;DHT22;800;48.824;9.346;2023-06-26T13:31:07;36.00;32.10
1614;DHT22;800;48.824;9.346;2023-06-26T13:33:33;36.20;31.40
1614;DHT22;800;48.824;9.346;2023-06-26T13:35:58;36.20;31.40
1614;DHT22;800;48.824;9.346;2023-06-26T13:38:24;36.10;31.40
1614;DHT22;800;48.824;9.346;2023-06-26T13:40:54;36.10;30.90
1614;DHT22;800;48.824;9.346;2023-06-26T13:43:21;35.90;31.40
1614;DHT22;800;48.824;9.346;2023-06-26T13:45:50;35.80;31.40
1614;DHT22;800;48.824;9.346;2023-06-26T13:48:15;35.70;31.30
1614;DHT22;800;48.824;9.346;2023-06-26T13:50:41;35.80;31.10
1614;DHT22;800;48.824;9.346;2023-06-26T13:53:07;35.80;30.70
1614;DHT22;800;48.824;9.346;2023-06-26T13:55:33;35.90;30.20
1614;DHT22;800;48.824;9.346;2023-06-26T13:57:59;36.10;29.70
1614;DHT22;800;48.824;9.346;2023-06-26T14:00:25;36.20;29.60
1614;DHT22;800;48.824;9.346;2023-06-26T14:02:51;36.30;29.20
1614;DHT22;800;48.824;9.346;2023-06-26T14:05:16;36.20;29.60
1614;DHT22;800;48.824;9.346;2023-06-26T14:07:44;36.10;29.20
1614;DHT22;800;48.824;9.346;2023-06-26T14:10:10;36.00;29.30
1614;DHT22;800;48.824;9.346;2023-06-26T14:12:35;35.70;29.40
1614;DHT22;800;48.824;9.346;2023-06-26T14:15:01;35.50;29.20
1614;DHT22;800;48.824;9.346;2023-06-26T14:17:27;35.60;29.50
1614;DHT22;800;48.824;9.346;2023-06-26T14:19:53;35.80;29.30
1614;DHT22;800;48.824;9.346;2023-06-26T14:26:02;35.80;29.20
1614;DHT22;800;48.824;9.346;2023-06-26T14:28:27;35.60;29.30
1614;DHT22;800;48.824;9.346;2023-06-26T14:30:53;35.50;29.30
1614;DHT22;800;48.824;9.346;2023-06-26T14:33:19;35.60;29.70
1614;DHT22;800;48.824;9.346;2023-06-26T14:35:44;35.60;29.10
1614;DHT22;800;48.824;9.346;2023-06-26T14:38:10;35.80;28.80
1614;DHT22;800;48.824;9.346;2023-06-26T14:40:35;35.90;28.50
1614;DHT22;800;48.824;9.346;2023-06-26T14:43:01;35.90;28.40
1614;DHT22;800;48.824;9.346;2023-06-26T14:45:26;35.80;28.40
1614;DHT22;800;48.824;9.346;2023-06-26T14:47:52;35.70;28.20
1614;DHT22;800;48.824;9.346;2023-06-26T14:50:17;35.80;28.60
1614;DHT22;800;48.824;9.346;2023-06-26T14:52:44;35.90;28.40
1614;DHT22;800;48.824;9.346;2023-06-26T14:55:09;35.60;28.40
1614;DHT22;800;48.824;9.346;2023-06-26T14:57:35;35.70;28.40
1614;DHT22;800;48.824;9.346;2023-06-26T15:00:01;35.70;28.60
1614;DHT22;800;48.824;9.346;2023-06-26T15:02:28;35.70;28.50
1614;DHT22;800;48.824;9.346;2023-06-26T15:04:54;35.60;28.80
1614;DHT22;800;48.824;9.346;2023-06-26T15:07:19;35.60;29.40
1614;DHT22;800;48.824;9.346;2023-06-26T15:09:45;35.40;28.80
1614;DHT22;800;48.824;9.346;2023-06-26T15:12:10;35.30;29.00
1614;DHT22;800;48.824;9.346;2023-06-26T15:14:36;35.20;29.10
1614;DHT22;800;48.824;9.346;2023-06-26T15:17:02;35.10;29.30
1614;DHT22;800;48.824;9.346;2023-06-26T15:19:28;35.00;29.50
1614;DHT22;800;48.824;9.346;2023-06-26T15:21:53;34.90;29.60
1614;DHT22;800;48.824;9.346;2023-06-26T15:24:19;34.70;29.60
1614;DHT22;800;48.824;9.346;2023-06-26T15:26:44;34.30;29.90
1614;DHT22;800;48.824;9.346;2023-06-26T15:29:10;34.00;30.40
1614;DHT22;800;48.824;9.346;2023-06-26T15:31:35;34.10;30.40
1614;DHT22;800;48.824;9.346;2023-06-26T15:34:02;34.30;30.00
1614;DHT22;800;48.824;9.346;2023-06-26T15:36:27;34.40;29.60
1614;DHT22;800;48.824;9.346;2023-06-26T15:38:53;34.00;29.90
1614;DHT22;800;48.824;9.346;2023-06-26T15:41:19;33.90;30.30
1614;DHT22;800;48.824;9.346;2023-06-26T15:43:44;33.80;30.60
1614;DHT22;800;48.824;9.346;2023-06-26T15:46:10;34.00;30.70
1614;DHT22;800;48.824;9.346;2023-06-26T15:48:36;34.10;30.40
1614;DHT22;800;48.824;9.346;2023-06-26T15:51:01;34.10;30.40
1614;DHT22;800;48.824;9.346;2023-06-26T15:53:35;33.90;30.00
1614;DHT22;800;48.824;9.346;2023-06-26T15:56:05;34.00;30.00
1614;DHT22;800;48.824;9.346;2023-06-26T15:58:31;33.80;30.20
1614;DHT22;800;48.824;9.346;2023-06-26T16:00:57;33.80;30.30
1614;DHT22;800;48.824;9.346;2023-06-26T16:03:22;33.70;30.50
1614;DHT22;800;48.824;9.346;2023-06-26T16:05:48;33.50;30.90
1614;DHT22;800;48.824;9.346;2023-06-26T16:08:14;33.30;31.50
1614;DHT22;800;48.824;9.346;2023-06-26T16:10:39;33.30;31.00
1614;DHT22;800;48.824;9.346;2023-06-26T16:13:05;33.20;31.20
1614;DHT22;800;48.824;9.346;2023-06-26T16:15:30;33.00;31.50
1614;DHT22;800;48.824;9.346;2023-06-26T16:17:56;33.10;31.60
1614;DHT22;800;48.824;9.346;2023-06-26T16:20:21;33.00;31.60
1614;DHT22;800;48.824;9.346;2023-06-26T16:22:47;33.10;31.60
1614;DHT22;800;48.824;9.346;2023-06-26T16:25:12;33.10;31.70
1614;DHT22;800;48.824;9.346;2023-06-26T16:27:38;32.90;31.60
1614;DHT22;800;48.824;9.346;2023-06-26T16:30:04;32.70;31.90
1614;DHT22;800;48.824;9.346;2023-06-26T16:32:29;32.70;32.00
1614;DHT22;800;48.824;9.346;2023-06-26T16:34:55;32.50;32.10
1614;DHT22;800;48.824;9.346;2023-06-26T16:37:21;32.50;32.40
1614;DHT22;800;48.824;9.346;2023-06-26T16:39:46;32.40;32.00
1614;DHT22;800;48.824;9.346;2023-06-26T16:42:12;32.40;31.80